createdAt,value
2024-04-24T00:01:46.679Z,100848.19
2024-04-24T00:04:14.317Z,100854.69
2024-04-24T00:06:41.891Z,100843.03
2024-04-24T00:09:09.481Z,100836.31
2024-04-24T00:11:39.834Z,100833.94
2024-04-24T00:14:07.351Z,100836.84
2024-04-24T00:16:34.770Z,100833.56
2024-04-24T00:19:02.238Z,100832.97
2024-04-24T00:21:29.590Z,100828.03
2024-04-24T00:23:57.167Z,100814.00
2024-04-24T00:26:24.774Z,100809.97
2024-04-24T00:28:55.019Z,100808.53
2024-04-24T00:31:22.571Z,100813.78
2024-04-24T00:33:50.221Z,100808.75
2024-04-24T00:36:17.796Z,100803.09
2024-04-24T00:38:45.376Z,100802.03
2024-04-24T00:41:13.047Z,100802.25
2024-04-24T00:43:40.449Z,100797.72
2024-04-24T00:46:10.548Z,100788.59
2024-04-24T00:48:38.231Z,100794.19
2024-04-24T00:51:05.955Z,100791.97
2024-04-24T00:53:33.394Z,100792.47
2024-04-24T00:56:00.818Z,100781.50
2024-04-24T00:58:28.268Z,100782.25
2024-04-24T01:00:56.219Z,100782.09
2024-04-24T01:03:26.462Z,100782.94
2024-04-24T01:05:54.024Z,100770.91
2024-04-24T01:08:21.517Z,100771.34
2024-04-24T01:10:55.438Z,100756.72
2024-04-24T01:13:23.030Z,100763.13
2024-04-24T01:15:51.068Z,100758.59
2024-04-24T01:18:18.841Z,100739.19
2024-04-24T01:20:48.950Z,100745.38
2024-04-24T01:23:22.548Z,100745.31
2024-04-24T01:25:53.288Z,100743.63
2024-04-24T01:28:23.587Z,100736.63
2024-04-24T01:30:51.678Z,100728.56
2024-04-24T01:33:19.326Z,100729.81
2024-04-24T01:35:46.879Z,100728.19
2024-04-24T01:38:14.260Z,100722.25
2024-04-24T01:40:42.046Z,100716.41
2024-04-24T01:43:09.505Z,100720.44
2024-04-24T01:45:39.696Z,100725.13
2024-04-24T01:48:07.902Z,100713.94
2024-04-24T01:50:35.646Z,100702.97
2024-04-24T01:53:03.493Z,100702.16
2024-04-24T01:55:31.145Z,100703.34
2024-04-24T01:57:58.540Z,100697.97
2024-04-24T02:00:26.069Z,100691.19
2024-04-24T02:02:56.231Z,100692.47
2024-04-24T02:05:23.643Z,100688.72
2024-04-24T02:07:51.148Z,100689.09
2024-04-24T02:10:18.477Z,100684.41
2024-04-24T02:12:46.062Z,100683.22
2024-04-24T02:15:13.758Z,100681.09
2024-04-24T02:17:41.320Z,100680.75
2024-04-24T02:20:11.554Z,100685.47
2024-04-24T02:22:38.911Z,100680.75
2024-04-24T02:25:07.043Z,100679.03
2024-04-24T02:27:34.490Z,100662.03
2024-04-24T02:30:01.971Z,100671.66
2024-04-24T02:32:29.516Z,100667.31
2024-04-24T02:34:57.224Z,100673.97
2024-04-24T02:37:27.294Z,100675.00
2024-04-24T02:39:54.653Z,100665.91
2024-04-24T02:42:22.275Z,100667.97
2024-04-24T02:44:49.756Z,100660.16
2024-04-24T02:47:17.399Z,100663.06
2024-04-24T02:49:44.981Z,100659.50
2024-04-24T02:52:12.773Z,100652.63
2024-04-24T02:54:42.765Z,100651.81
2024-04-24T02:57:10.163Z,100648.06
2024-04-24T02:59:37.596Z,100646.44
2024-04-24T03:02:05.157Z,100652.47
2024-04-24T03:04:32.568Z,100646.94
2024-04-24T03:06:59.927Z,100641.38
2024-04-24T03:09:28.182Z,100643.13
2024-04-24T03:11:59.057Z,100643.06
2024-04-24T03:14:26.965Z,100648.75
2024-04-24T03:16:54.392Z,100640.56
2024-04-24T03:19:21.882Z,100639.25
2024-04-24T03:21:49.282Z,100639.44
2024-04-24T03:24:16.767Z,100631.38
2024-04-24T03:26:44.195Z,100625.84
2024-04-24T03:29:15.013Z,100634.50
2024-04-24T03:31:43.427Z,100629.94
2024-04-24T03:34:10.821Z,100631.94
2024-04-24T03:36:38.151Z,100622.19
2024-04-24T03:39:05.812Z,100630.16
2024-04-24T03:41:33.215Z,100624.47
2024-04-24T03:44:00.761Z,100617.22
2024-04-24T03:46:30.847Z,100619.72
2024-04-24T03:48:58.264Z,100611.81
2024-04-24T03:51:25.854Z,100613.53
2024-04-24T03:53:53.317Z,100608.50
2024-04-24T03:56:21.298Z,100613.22
2024-04-24T03:58:48.979Z,100599.81
2024-04-24T04:01:16.594Z,100597.84
2024-04-24T04:03:46.664Z,100594.88
2024-04-24T04:06:14.007Z,100601.66
2024-04-24T04:08:41.432Z,100589.28
2024-04-24T04:11:08.900Z,100588.16
2024-04-24T04:13:36.389Z,100590.47
2024-04-24T04:16:03.994Z,100575.78
2024-04-24T04:18:31.840Z,100577.34
2024-04-24T04:21:01.919Z,100570.34
2024-04-24T04:23:29.584Z,100573.59
2024-04-24T04:25:57.057Z,100575.47
2024-04-24T04:28:24.446Z,100560.16
2024-04-24T04:30:51.898Z,100569.66
2024-04-24T04:33:19.495Z,100563.25
2024-04-24T04:35:46.913Z,100568.41
2024-04-24T04:38:16.950Z,100574.81
2024-04-24T04:40:44.321Z,100574.97
2024-04-24T04:43:11.958Z,100573.69
2024-04-24T04:45:39.286Z,100569.72
2024-04-24T04:48:07.585Z,100565.34
2024-04-24T04:50:35.289Z,100567.13
2024-04-24T04:53:02.799Z,100562.31
2024-04-24T04:55:33.059Z,100554.72
2024-04-24T04:58:01.154Z,100559.06
2024-04-24T05:00:28.739Z,100562.09
2024-04-24T05:02:56.316Z,100559.22
2024-04-24T05:05:23.861Z,100558.28
2024-04-24T05:07:51.472Z,100560.34
2024-04-24T05:10:18.890Z,100550.66
2024-04-24T05:12:49.001Z,100546.88
2024-04-24T05:15:16.627Z,100544.38
2024-04-24T05:17:44.257Z,100540.19
2024-04-24T05:20:11.877Z,100540.28
2024-04-24T05:22:39.324Z,100536.31
2024-04-24T05:25:07.504Z,100538.28
2024-04-24T05:27:35.299Z,100536.88
2024-04-24T05:30:06.588Z,100534.53
2024-04-24T05:32:34.075Z,100531.78
2024-04-24T05:35:01.943Z,100527.69
2024-04-24T05:37:29.536Z,100523.88
2024-04-24T05:39:57.018Z,100521.03
2024-04-24T05:42:24.352Z,100520.84
2024-04-24T05:44:51.874Z,100516.16
2024-04-24T05:47:22.009Z,100508.81
2024-04-24T05:49:49.600Z,100495.63
2024-04-24T05:52:17.037Z,100507.19
2024-04-24T05:54:44.463Z,100496.53
2024-04-24T05:57:11.943Z,100505.34
2024-04-24T05:59:39.389Z,100503.09
2024-04-24T06:02:06.910Z,100499.84
2024-04-24T06:04:37.026Z,100499.13
2024-04-24T06:07:04.418Z,100495.25
2024-04-24T06:09:32.784Z,100497.72
2024-04-24T06:12:00.291Z,100493.06
2024-04-24T06:14:27.999Z,100495.63
2024-04-24T06:16:55.598Z,100488.38
2024-04-24T06:19:23.013Z,100488.59
2024-04-24T06:21:53.125Z,100493.28
2024-04-24T06:24:20.622Z,100484.38
2024-04-24T06:26:48.171Z,100484.38
2024-04-24T06:29:15.869Z,100485.78
2024-04-24T06:31:43.399Z,100482.72
2024-04-24T06:34:11.411Z,100480.34
2024-04-24T06:36:38.938Z,100474.75
2024-04-24T06:39:09.362Z,100475.97
2024-04-24T06:41:36.959Z,100477.97
2024-04-24T06:44:04.625Z,100478.78
2024-04-24T06:46:32.106Z,100472.00
2024-04-24T06:48:59.653Z,100477.09
2024-04-24T06:51:27.380Z,100469.28
2024-04-24T06:53:54.904Z,100465.91
2024-04-24T06:56:25.248Z,100465.09
2024-04-24T06:58:52.803Z,100469.63
2024-04-24T07:01:20.355Z,100469.03
2024-04-24T07:03:48.055Z,100466.03
2024-04-24T07:06:15.761Z,100461.94
2024-04-24T07:08:43.697Z,100464.22
2024-04-24T07:11:11.076Z,100462.84
2024-04-24T07:13:41.417Z,100461.59
2024-04-24T07:16:08.951Z,100459.94
2024-04-24T07:18:36.362Z,100458.00
2024-04-24T07:21:04.086Z,100457.19
2024-04-24T07:23:31.706Z,100457.66
2024-04-24T07:25:59.116Z,100464.63
2024-04-24T07:28:26.614Z,100461.72
2024-04-24T07:30:56.643Z,100460.66
2024-04-24T07:33:24.333Z,100463.56
2024-04-24T07:35:51.996Z,100466.09
2024-04-24T07:38:19.388Z,100460.75
2024-04-24T07:40:46.912Z,100459.56
2024-04-24T07:43:14.261Z,100458.28
2024-04-24T07:45:41.990Z,100455.34
2024-04-24T07:48:12.204Z,100453.25
2024-04-24T07:50:39.882Z,100462.31
2024-04-24T07:53:07.763Z,100452.81
2024-04-24T07:55:35.420Z,100451.53
2024-04-24T07:58:02.814Z,100456.53
2024-04-24T08:00:30.264Z,100455.41
2024-04-24T08:02:57.764Z,100466.16
2024-04-24T08:05:27.832Z,100459.06
2024-04-24T08:07:55.412Z,100461.34
2024-04-24T08:10:23.220Z,100465.38
2024-04-24T08:12:50.626Z,100461.19
2024-04-24T08:15:18.054Z,100460.53
2024-04-24T08:17:45.730Z,100470.03
2024-04-24T08:20:13.450Z,100465.13
2024-04-24T08:22:43.478Z,100464.38
2024-04-24T08:25:10.828Z,100465.13
2024-04-24T08:27:38.438Z,100471.47
2024-04-24T08:30:06.840Z,100464.31
2024-04-24T08:32:34.720Z,100470.41
2024-04-24T08:35:02.381Z,100459.28
2024-04-24T08:37:29.849Z,100466.63
2024-04-24T08:39:59.857Z,100468.19
2024-04-24T08:42:27.492Z,100465.59
2024-04-24T08:44:55.032Z,100467.16
2024-04-24T08:47:22.788Z,100468.94
2024-04-24T08:49:50.505Z,100456.41
2024-04-24T08:52:18.198Z,100464.19
2024-04-24T08:54:45.729Z,100466.28
2024-04-24T08:57:15.952Z,100461.94
2024-04-24T08:59:43.607Z,100467.38
2024-04-24T09:02:11.621Z,100470.50
2024-04-24T09:04:41.122Z,100463.38
2024-04-24T09:07:09.064Z,100464.03
2024-04-24T09:09:36.937Z,100457.97
2024-04-24T09:12:05.502Z,100456.09
2024-04-24T09:14:35.886Z,100459.72
2024-04-24T09:17:03.784Z,100455.53
2024-04-24T09:19:31.268Z,100452.09
2024-04-24T09:21:58.916Z,100447.47
2024-04-24T09:24:26.522Z,100454.34
2024-04-24T09:26:53.980Z,100451.16
2024-04-24T09:29:21.485Z,100449.47
2024-04-24T09:31:51.601Z,100443.13
2024-04-24T09:34:19.128Z,100439.72
2024-04-24T09:36:48.444Z,100442.97
2024-04-24T09:39:16.484Z,100441.56
2024-04-24T09:41:44.044Z,100433.31
2024-04-24T09:44:11.946Z,100437.94
2024-04-24T09:46:46.011Z,100426.75
2024-04-24T09:49:16.097Z,100434.13
2024-04-24T09:51:43.674Z,100428.22
2024-04-24T09:54:11.151Z,100433.22
2024-04-24T09:56:42.333Z,100417.56
2024-04-24T09:59:10.955Z,100415.13
2024-04-24T10:01:38.562Z,100420.34
2024-04-24T10:04:06.751Z,100417.13
2024-04-24T10:06:36.882Z,100419.78
2024-04-24T10:09:04.751Z,100408.72
2024-04-24T10:11:35.176Z,100411.19
2024-04-24T10:14:03.053Z,100413.97
2024-04-24T10:16:31.125Z,100414.44
2024-04-24T10:18:58.587Z,100406.88
2024-04-24T10:21:26.357Z,100399.47
2024-04-24T10:23:56.430Z,100401.78
2024-04-24T10:26:24.010Z,100401.66
2024-04-24T10:28:51.435Z,100395.09
2024-04-24T10:31:18.903Z,100402.84
2024-04-24T10:33:46.390Z,100393.66
2024-04-24T10:36:13.752Z,100386.81
2024-04-24T10:38:43.862Z,100390.88
2024-04-24T10:41:13.948Z,100381.16
2024-04-24T10:43:42.223Z,100381.09
2024-04-24T10:46:09.791Z,100371.97
2024-04-24T10:48:54.251Z,100367.81
2024-04-24T10:51:27.935Z,100364.56
2024-04-24T10:53:58.375Z,100364.03
2024-04-24T10:56:33.159Z,100357.81
2024-04-24T10:59:01.806Z,100355.09
2024-04-24T11:01:42.173Z,100355.06
2024-04-24T11:04:15.671Z,100347.06
2024-04-24T11:06:43.170Z,100353.56
2024-04-24T11:09:11.549Z,100348.69
2024-04-24T11:11:41.849Z,100346.47
2024-04-24T11:14:12.354Z,100346.47
2024-04-24T11:16:42.125Z,100350.22
2024-04-24T11:19:09.802Z,100346.41
2024-04-24T11:21:37.501Z,100341.34
2024-04-24T11:24:05.850Z,100342.19
2024-04-24T11:26:34.010Z,100343.50
2024-04-24T11:29:05.492Z,100343.53
2024-04-24T11:31:35.005Z,100339.75
2024-04-24T11:34:02.626Z,100339.78
2024-04-24T11:36:30.234Z,100334.34
2024-04-24T11:38:57.640Z,100338.13
2024-04-24T11:41:25.290Z,100331.56
2024-04-24T11:43:52.682Z,100328.63
2024-04-24T11:46:23.267Z,100331.06
2024-04-24T11:48:52.340Z,100332.28
2024-04-24T11:51:22.598Z,100329.22
2024-04-24T11:53:50.809Z,100327.63
2024-04-24T11:56:18.498Z,100336.69
2024-04-24T11:58:46.212Z,100328.34
2024-04-24T12:01:13.641Z,100334.84
2024-04-24T12:03:43.740Z,100329.75
2024-04-24T12:06:11.089Z,100321.91
2024-04-24T12:08:38.529Z,100321.06
2024-04-24T12:11:06.272Z,100319.41
2024-04-24T12:13:34.196Z,100314.50
2024-04-24T12:16:02.273Z,100313.97
2024-04-24T12:18:30.360Z,100308.00
2024-04-24T12:21:02.496Z,100315.25
2024-04-24T12:23:32.174Z,100311.22
2024-04-24T12:25:59.612Z,100313.00
2024-04-24T12:28:27.632Z,100312.53
2024-04-24T12:30:56.432Z,100314.97
2024-04-24T12:33:25.236Z,100307.09
2024-04-24T12:35:52.802Z,100300.41
2024-04-24T12:38:23.179Z,100298.72
2024-04-24T12:40:50.770Z,100295.50
2024-04-24T12:43:18.242Z,100291.50
2024-04-24T12:45:48.141Z,100298.25
2024-04-24T12:48:15.674Z,100292.56
2024-04-24T12:50:43.034Z,100293.66
2024-04-24T12:53:10.586Z,100279.56
2024-04-24T12:55:41.703Z,100277.81
2024-04-24T12:58:09.298Z,100280.38
2024-04-24T13:00:38.239Z,100278.22
2024-04-24T13:03:06.270Z,100278.22
2024-04-24T13:05:33.954Z,100277.69
2024-04-24T13:08:01.433Z,100281.44
2024-04-24T13:10:28.892Z,100276.34
2024-04-24T13:12:58.941Z,100271.72
2024-04-24T13:15:26.613Z,100272.50
2024-04-24T13:17:54.170Z,100265.47
2024-04-24T13:20:21.806Z,100265.47
2024-04-24T13:22:49.230Z,100260.19
2024-04-24T13:25:17.390Z,100259.41
2024-04-24T13:27:45.045Z,100265.16
2024-04-24T13:30:15.177Z,100261.06
2024-04-24T13:32:42.614Z,100240.72
2024-04-24T13:35:10.182Z,100253.63
2024-04-24T13:37:37.575Z,100249.50
2024-04-24T13:40:05.815Z,100238.72
2024-04-24T13:42:33.471Z,100236.69
2024-04-24T13:45:00.949Z,100242.16
2024-04-24T13:47:31.090Z,100239.75
2024-04-24T13:49:58.677Z,100247.59
2024-04-24T13:52:26.387Z,100236.22
2024-04-24T13:54:54.070Z,100228.34
2024-04-24T13:57:21.650Z,100236.75
2024-04-24T13:59:49.079Z,100231.56
2024-04-24T14:02:16.482Z,100233.75
2024-04-24T14:04:46.606Z,100231.06
2024-04-24T14:07:13.972Z,100239.97
2024-04-24T14:09:41.902Z,100240.25
2024-04-24T14:12:09.781Z,100243.25
2024-04-24T14:14:37.569Z,100240.50
2024-04-24T14:17:05.246Z,100235.09
2024-04-24T14:19:32.888Z,100242.66
2024-04-24T14:22:03.083Z,100230.44
2024-04-24T14:24:30.687Z,100243.44
2024-04-24T14:26:58.122Z,100237.41
2024-04-24T14:29:25.634Z,100233.16
2024-04-24T14:31:53.029Z,100229.63
2024-04-24T14:34:20.488Z,100236.72
2024-04-24T14:36:47.842Z,100232.06
2024-04-24T14:39:18.061Z,100230.69
2024-04-24T14:41:45.637Z,100229.91
2024-04-24T14:44:13.113Z,100228.56
2024-04-24T14:46:40.608Z,100227.75
2024-04-24T14:49:08.164Z,100231.00
2024-04-24T14:51:35.752Z,100229.88
2024-04-24T14:54:03.273Z,100234.22
2024-04-24T14:56:33.382Z,100233.63
2024-04-24T14:59:00.977Z,100235.84
2024-04-24T15:01:28.637Z,100230.69
2024-04-24T15:03:56.251Z,100242.53
2024-04-24T15:06:23.602Z,100245.13
2024-04-24T15:08:51.073Z,100241.25
2024-04-24T15:11:18.517Z,100242.84
2024-04-24T15:13:48.656Z,100243.06
2024-04-24T15:16:16.461Z,100246.88
2024-04-24T15:18:43.844Z,100244.75
2024-04-24T15:21:11.369Z,100245.50
2024-04-24T15:23:38.875Z,100244.78
2024-04-24T15:26:06.382Z,100245.31
2024-04-24T15:28:33.788Z,100241.47
2024-04-24T15:31:03.823Z,100228.38
2024-04-24T15:33:31.599Z,100230.16
2024-04-24T15:35:59.173Z,100228.03
2024-04-24T15:38:26.877Z,100234.88
2024-04-24T15:40:54.415Z,100226.50
2024-04-24T15:43:22.018Z,100228.22
2024-04-24T15:45:49.639Z,100222.16
2024-04-24T15:48:19.780Z,100221.47
2024-04-24T15:50:47.339Z,100218.94
2024-04-24T15:53:14.805Z,100217.44
2024-04-24T15:55:42.526Z,100225.59
2024-04-24T15:58:10.079Z,100226.88
2024-04-24T16:00:37.436Z,100228.00
2024-04-24T16:03:05.557Z,100221.16
2024-04-24T16:05:35.568Z,100223.97
2024-04-24T16:08:02.954Z,100224.63
2024-04-24T16:10:30.398Z,100216.47
2024-04-24T16:12:57.782Z,100221.72
2024-04-24T16:15:25.258Z,100224.00
2024-04-24T16:17:52.868Z,100221.59
2024-04-24T16:20:20.556Z,100220.66
2024-04-24T16:22:50.562Z,100218.06
2024-04-24T16:25:18.280Z,100217.41
2024-04-24T16:27:45.993Z,100219.38
2024-04-24T16:30:13.604Z,100218.56
2024-04-24T16:32:41.312Z,100212.63
2024-04-24T16:35:08.823Z,100214.50
2024-04-24T16:37:36.421Z,100208.25
2024-04-24T16:40:07.456Z,100212.81
2024-04-24T16:42:34.989Z,100205.56
2024-04-24T16:45:02.449Z,100205.53
2024-04-24T16:47:30.024Z,100195.41
2024-04-24T16:49:57.998Z,100201.47
2024-04-24T16:52:25.422Z,100194.31
2024-04-24T16:54:52.793Z,100200.84
2024-04-24T16:57:22.811Z,100201.34
2024-04-24T16:59:50.271Z,100194.34
2024-04-24T17:02:17.668Z,100194.53
2024-04-24T17:04:45.398Z,100202.13
2024-04-24T17:07:12.941Z,100199.16
2024-04-24T17:09:40.398Z,100190.38
2024-04-24T17:12:08.120Z,100199.88
2024-04-24T17:14:38.313Z,100196.91
2024-04-24T17:17:06.090Z,100198.41
2024-04-24T17:19:33.772Z,100194.13
2024-04-24T17:22:01.390Z,100198.09
2024-04-24T17:24:29.136Z,100197.53
2024-04-24T17:26:56.638Z,100195.88
2024-04-24T17:29:24.367Z,100202.38
2024-04-24T17:31:54.797Z,100189.38
2024-04-24T17:34:22.298Z,100201.84
2024-04-24T17:36:49.830Z,100208.63
2024-04-24T17:39:17.229Z,100208.34
2024-04-24T17:41:44.946Z,100204.63
2024-04-24T17:44:12.509Z,100211.53
2024-04-24T17:46:39.923Z,100210.69
2024-04-24T17:49:10.082Z,100206.03
2024-04-24T17:51:37.476Z,100217.38
2024-04-24T17:54:05.125Z,100212.25
2024-04-24T17:56:32.473Z,100207.34
2024-04-24T17:59:00.159Z,100213.53
2024-04-24T18:01:27.614Z,100216.88
2024-04-24T18:03:55.232Z,100211.34
2024-04-24T18:06:25.402Z,100209.72
2024-04-24T18:08:52.971Z,100212.41
2024-04-24T18:11:20.795Z,100217.19
2024-04-24T18:13:48.547Z,100210.13
2024-04-24T18:16:16.196Z,100217.59
2024-04-24T18:18:43.714Z,100216.66
2024-04-24T18:21:11.381Z,100219.47
2024-04-24T18:23:41.493Z,100222.16
2024-04-24T18:26:09.407Z,100227.00
2024-04-24T18:28:37.201Z,100228.50
2024-04-24T18:31:05.155Z,100234.06
2024-04-24T18:33:32.771Z,100238.94
2024-04-24T18:36:00.732Z,100229.81
2024-04-24T18:38:28.263Z,100249.88
2024-04-24T18:40:58.694Z,100243.19
2024-04-24T18:43:26.251Z,100236.16
2024-04-24T18:45:53.677Z,100241.53
2024-04-24T18:48:21.445Z,100245.88
2024-04-24T18:50:52.094Z,100246.28
2024-04-24T18:53:19.733Z,100249.56
2024-04-24T18:55:47.164Z,100248.66
2024-04-24T18:58:17.186Z,100248.19
2024-04-24T19:00:44.631Z,100251.69
2024-04-24T19:03:12.077Z,100247.38
2024-04-24T19:05:39.565Z,100245.25
2024-04-24T19:08:07.488Z,100242.56
2024-04-24T19:10:35.043Z,100246.78
2024-04-24T19:13:02.732Z,100245.75
2024-04-24T19:15:32.828Z,100251.44
2024-04-24T19:18:00.481Z,100250.69
2024-04-24T19:20:29.445Z,100241.22
2024-04-24T19:22:57.970Z,100243.38
2024-04-24T19:25:25.375Z,100248.44
2024-04-24T19:27:52.731Z,100245.34
2024-04-24T19:30:20.197Z,100254.81
2024-04-24T19:32:50.377Z,100252.38
2024-04-24T19:35:17.859Z,100248.19
2024-04-24T19:37:45.219Z,100252.47
2024-04-24T19:40:12.745Z,100245.19
2024-04-24T19:42:40.171Z,100251.81
2024-04-24T19:45:08.431Z,100255.25
2024-04-24T19:47:36.174Z,100247.72
2024-04-24T19:50:06.905Z,100246.91
2024-04-24T19:52:34.360Z,100246.09
2024-04-24T19:55:01.781Z,100250.34
2024-04-24T19:57:29.153Z,100247.41
2024-04-24T19:59:56.665Z,100253.31
2024-04-24T20:02:27.098Z,100249.22
2024-04-24T20:04:56.227Z,100246.59
2024-04-24T20:07:26.308Z,100253.88
2024-04-24T20:09:53.876Z,100246.59
2024-04-24T20:12:21.388Z,100246.59
2024-04-24T20:14:49.228Z,100246.59
2024-04-24T20:17:16.992Z,100248.97
2024-04-24T20:19:44.475Z,100246.34
2024-04-24T20:22:12.117Z,100243.97
2024-04-24T20:24:42.178Z,100243.63
2024-04-24T20:27:09.821Z,100237.94
2024-04-24T20:29:37.769Z,100246.41
2024-04-24T20:32:05.736Z,100247.88
2024-04-24T20:34:33.676Z,100252.34
2024-04-24T20:37:01.097Z,100245.72
2024-04-24T20:39:28.580Z,100248.56
2024-04-24T20:41:58.637Z,100251.50
2024-04-24T20:44:26.059Z,100253.28
2024-04-24T20:46:53.837Z,100250.00
2024-04-24T20:49:21.247Z,100247.81
2024-04-24T20:51:48.977Z,100239.97
2024-04-24T20:54:16.440Z,100244.53
2024-04-24T20:56:43.883Z,100248.28
2024-04-24T20:59:14.025Z,100247.03
2024-04-24T21:01:41.504Z,100245.75
2024-04-24T21:04:09.186Z,100242.81
2024-04-24T21:06:36.836Z,100240.38
2024-04-24T21:09:04.648Z,100243.06
2024-04-24T21:11:32.538Z,100251.34
2024-04-24T21:13:59.956Z,100246.69
2024-04-24T21:16:30.115Z,100237.00
2024-04-24T21:18:57.594Z,100238.53
2024-04-24T21:21:25.348Z,100232.09
2024-04-24T21:23:53.062Z,100236.56
2024-04-24T21:26:20.779Z,100235.50
2024-04-24T21:28:48.190Z,100239.84
2024-04-24T21:31:15.613Z,100230.75
2024-04-24T21:33:45.691Z,100230.41
2024-04-24T21:36:13.419Z,100232.50
2024-04-24T21:38:41.226Z,100226.19
2024-04-24T21:41:17.922Z,100224.31
2024-04-24T21:43:45.463Z,100225.97
2024-04-24T21:46:13.101Z,100227.03
2024-04-24T21:48:40.520Z,100212.81
2024-04-24T21:51:10.917Z,100224.81
2024-04-24T21:53:38.820Z,100226.69
2024-04-24T21:56:06.505Z,100220.72
2024-04-24T21:58:33.918Z,100216.97
2024-04-24T22:01:01.372Z,100216.66
2024-04-24T22:03:29.342Z,100223.34
2024-04-24T22:05:56.802Z,100215.63
2024-04-24T22:08:27.011Z,100213.78
2024-04-24T22:10:54.559Z,100215.56
2024-04-24T22:13:22.192Z,100213.00
2024-04-24T22:15:49.610Z,100198.41
2024-04-24T22:18:17.135Z,100208.59
2024-04-24T22:20:44.680Z,100206.13
2024-04-24T22:23:12.296Z,100205.56
2024-04-24T22:25:42.320Z,100207.88
2024-04-24T22:28:09.635Z,100208.09
2024-04-24T22:30:37.040Z,100213.72
2024-04-24T22:33:04.916Z,100208.81
2024-04-24T22:35:32.584Z,100210.81
2024-04-24T22:38:00.761Z,100204.38
2024-04-24T22:40:28.111Z,100202.25
2024-04-24T22:42:58.055Z,100198.66
2024-04-24T22:45:25.480Z,100198.31
2024-04-24T22:47:52.995Z,100213.34
2024-04-24T22:50:20.505Z,100215.91
2024-04-24T22:52:47.898Z,100213.91
2024-04-24T22:55:15.340Z,100216.03
2024-04-24T22:57:42.677Z,100203.31
2024-04-24T23:00:15.613Z,100204.72
2024-04-24T23:02:43.060Z,100199.69
2024-04-24T23:05:10.501Z,100204.94
2024-04-24T23:07:37.863Z,100194.22
2024-04-24T23:10:05.962Z,100192.22
2024-04-24T23:12:33.887Z,100185.25
2024-04-24T23:15:01.238Z,100191.19
2024-04-24T23:17:31.369Z,100193.06
2024-04-24T23:19:58.913Z,100181.13
2024-04-24T23:22:26.244Z,100182.66
2024-04-24T23:24:53.745Z,100185.00
2024-04-24T23:27:21.090Z,100180.81
2024-04-24T23:29:48.517Z,100173.31
2024-04-24T23:32:15.894Z,100168.44
2024-04-24T23:34:45.932Z,100166.31
2024-04-24T23:37:13.273Z,100164.44
2024-04-24T23:39:40.605Z,100168.91
2024-04-24T23:42:07.966Z,100159.91
2024-04-24T23:44:35.571Z,100159.91
2024-04-24T23:47:03.126Z,100163.88
2024-04-24T23:49:31.447Z,100161.53
2024-04-24T23:52:01.453Z,100164.81
2024-04-24T23:54:28.799Z,100162.81
2024-04-24T23:56:56.159Z,100158.38
2024-04-24T23:59:23.762Z,100156.53
